createdAt,value
2018-06-08T00:00:17.796Z,17.13
2018-06-08T00:01:17.873Z,17.14
2018-06-08T00:02:17.137Z,17.11
2018-06-08T00:03:17.439Z,17.14
2018-06-08T00:04:17.713Z,17.18
2018-06-08T00:05:17.988Z,17.15
2018-06-08T00:06:17.275Z,17.15
2018-06-08T00:07:17.536Z,17.14
2018-06-08T00:08:17.789Z,17.14
2018-06-08T00:09:17.072Z,17.08
2018-06-08T00:10:17.365Z,17.10
2018-06-08T00:11:17.414Z,17.08
2018-06-08T00:12:17.703Z,17.05
2018-06-08T00:13:17.989Z,17.05
2018-06-08T00:14:17.268Z,17.07
2018-06-08T00:15:17.562Z,17.07
2018-06-08T00:16:17.863Z,17.08
2018-06-08T00:17:17.162Z,17.10
2018-06-08T00:18:17.446Z,17.15
2018-06-08T00:19:17.705Z,17.15
2018-06-08T00:20:17.970Z,17.15
2018-06-08T00:21:17.023Z,17.17
2018-06-08T00:22:17.291Z,17.15
2018-06-08T00:23:17.548Z,17.18
2018-06-08T00:24:17.824Z,17.14
2018-06-08T00:25:17.115Z,17.17
2018-06-08T00:26:17.404Z,17.15
2018-06-08T00:27:17.701Z,17.14
2018-06-08T00:28:17.998Z,17.14
2018-06-08T00:29:17.286Z,17.11
2018-06-08T00:30:17.567Z,17.08
2018-06-08T00:31:17.630Z,17.10
2018-06-08T00:32:17.892Z,17.11
2018-06-08T00:33:17.182Z,17.17
2018-06-08T00:34:17.477Z,17.13
2018-06-08T00:35:17.739Z,17.13
2018-06-08T00:36:18.014Z,17.04
2018-06-08T00:37:17.307Z,17.01
2018-06-08T00:38:17.569Z,16.98
2018-06-08T00:39:17.839Z,17.00
2018-06-08T00:40:17.110Z,16.90
2018-06-08T00:41:17.188Z,16.90
2018-06-08T00:42:17.466Z,16.87
2018-06-08T00:43:17.748Z,16.86
2018-06-08T00:44:18.062Z,16.83
2018-06-08T00:45:17.329Z,16.83
2018-06-08T00:46:17.611Z,16.83
2018-06-08T00:47:17.886Z,16.78
2018-06-08T00:48:17.165Z,16.74
2018-06-08T00:49:17.464Z,16.81
2018-06-08T00:50:17.748Z,16.77
2018-06-08T00:51:17.812Z,16.74
2018-06-08T00:52:17.110Z,16.76
2018-06-08T00:53:17.380Z,16.76
2018-06-08T00:54:17.651Z,16.76
2018-06-08T00:55:17.936Z,16.76
2018-06-08T00:56:17.192Z,16.74
2018-06-08T00:57:17.460Z,16.73
2018-06-08T00:58:17.711Z,16.74
2018-06-08T00:59:18.000Z,16.71
2018-06-08T01:00:17.287Z,16.68
2018-06-08T01:01:17.356Z,16.67
2018-06-08T01:02:17.622Z,16.64
2018-06-08T01:03:17.898Z,16.68
2018-06-08T01:04:17.186Z,16.63
2018-06-08T01:05:17.788Z,16.64
2018-06-08T01:06:17.056Z,16.62
2018-06-08T01:07:17.328Z,16.60
2018-06-08T01:08:17.601Z,16.59
2018-06-08T01:09:17.883Z,16.57
2018-06-08T01:10:17.469Z,16.56
2018-06-08T01:11:17.529Z,16.53
2018-06-08T01:12:17.799Z,16.53
2018-06-08T01:13:17.074Z,16.50
2018-06-08T01:14:17.368Z,16.50
2018-06-08T01:15:17.648Z,16.47
2018-06-08T01:16:17.915Z,16.45
2018-06-08T01:17:17.186Z,16.42
2018-06-08T01:18:17.465Z,16.40
2018-06-08T01:19:17.741Z,16.39
2018-06-08T01:20:18.012Z,16.35
2018-06-08T01:21:17.070Z,16.35
2018-06-08T01:22:17.333Z,16.33
2018-06-08T01:23:17.631Z,16.35
2018-06-08T01:24:17.927Z,16.31
2018-06-08T01:25:17.188Z,16.31
2018-06-08T01:26:17.475Z,16.27
2018-06-08T01:27:17.747Z,16.27
2018-06-08T01:28:18.042Z,16.25
2018-06-08T01:29:17.324Z,16.27
2018-06-08T01:30:17.612Z,16.22
2018-06-08T01:31:17.656Z,16.22
2018-06-08T01:32:17.929Z,16.25
2018-06-08T01:33:17.215Z,16.31
2018-06-08T01:34:17.491Z,16.31
2018-06-08T01:35:17.768Z,16.32
2018-06-08T01:36:18.029Z,16.33
2018-06-08T01:37:17.312Z,16.35
2018-06-08T01:38:17.596Z,16.38
2018-06-08T01:39:17.876Z,16.40
2018-06-08T01:40:17.177Z,16.43
2018-06-08T01:41:17.238Z,16.46
2018-06-08T01:42:17.518Z,16.49
2018-06-08T01:43:17.783Z,16.50
2018-06-08T01:44:17.080Z,16.52
2018-06-08T01:45:17.369Z,16.50
2018-06-08T01:46:17.658Z,16.49
2018-06-08T01:47:17.936Z,16.49
2018-06-08T01:48:17.208Z,16.49
2018-06-08T01:49:17.494Z,16.50
2018-06-08T01:50:17.796Z,16.53
2018-06-08T01:51:17.806Z,16.57
2018-06-08T01:52:17.082Z,16.56
2018-06-08T01:53:17.359Z,16.56
2018-06-08T01:54:17.639Z,16.59
2018-06-08T01:55:17.954Z,16.60
2018-06-08T01:56:17.233Z,16.59
2018-06-08T01:57:17.512Z,16.57
2018-06-08T01:58:17.797Z,16.57
2018-06-08T01:59:17.058Z,16.57
2018-06-08T02:00:17.370Z,16.59
2018-06-08T02:01:17.408Z,16.59
2018-06-08T02:02:17.684Z,16.56
2018-06-08T02:03:17.978Z,16.57
2018-06-08T02:04:17.261Z,16.56
2018-06-08T02:05:17.533Z,16.56
2018-06-08T02:06:17.803Z,16.57
2018-06-08T02:07:17.716Z,16.59
2018-06-08T02:08:17.971Z,16.59
2018-06-08T02:09:17.242Z,16.59
2018-06-08T02:10:17.521Z,16.57
2018-06-08T02:11:17.576Z,16.57
2018-06-08T02:12:17.857Z,16.56
2018-06-08T02:13:17.145Z,16.55
2018-06-08T02:14:17.422Z,16.56
2018-06-08T02:15:17.693Z,16.57
2018-06-08T02:16:17.952Z,16.59
2018-06-08T02:17:17.224Z,16.56
2018-06-08T02:18:17.525Z,16.55
2018-06-08T02:19:17.821Z,16.52
2018-06-08T02:20:17.112Z,16.50
2018-06-08T02:21:17.146Z,16.52
2018-06-08T02:22:17.408Z,16.52
2018-06-08T02:23:17.693Z,16.50
2018-06-08T02:24:17.972Z,16.52
2018-06-08T02:25:17.255Z,16.50
2018-06-08T02:26:17.531Z,16.49
2018-06-08T02:27:17.814Z,16.47
2018-06-08T02:28:17.109Z,16.49
2018-06-08T02:29:17.394Z,16.49
2018-06-08T02:30:17.723Z,16.50
2018-06-08T02:31:17.736Z,16.49
2018-06-08T02:32:18.313Z,16.47
2018-06-08T02:33:17.610Z,16.47
2018-06-08T02:34:17.894Z,16.47
2018-06-08T02:35:17.189Z,16.50
2018-06-08T02:36:17.480Z,16.47
2018-06-08T02:37:17.764Z,16.52
2018-06-08T02:38:17.059Z,16.53
2018-06-08T02:39:17.324Z,16.52
2018-06-08T02:40:17.626Z,16.53
2018-06-08T02:41:17.676Z,16.52
2018-06-08T02:42:17.954Z,16.52
2018-06-08T02:43:17.221Z,16.56
2018-06-08T02:44:17.483Z,16.53
2018-06-08T02:45:17.767Z,16.56
2018-06-08T02:46:18.066Z,16.55
2018-06-08T02:47:17.332Z,16.55
2018-06-08T02:48:17.626Z,16.55
2018-06-08T02:49:17.894Z,16.57
2018-06-08T02:50:17.185Z,16.60
2018-06-08T02:51:17.247Z,16.63
2018-06-08T02:52:17.525Z,16.64
2018-06-08T02:53:17.817Z,16.67
2018-06-08T02:54:17.102Z,16.68
2018-06-08T02:55:17.393Z,16.67
2018-06-08T02:56:17.686Z,16.63
2018-06-08T02:57:17.965Z,16.66
2018-06-08T02:58:17.227Z,16.63
2018-06-08T02:59:17.503Z,16.64
2018-06-08T03:00:17.797Z,16.64
2018-06-08T03:01:17.853Z,16.67
2018-06-08T03:02:17.408Z,16.66
2018-06-08T03:03:17.689Z,16.62
2018-06-08T03:04:17.969Z,16.64
2018-06-08T03:05:17.320Z,16.66
2018-06-08T03:06:17.675Z,16.64
2018-06-08T03:07:17.655Z,16.66
2018-06-08T03:08:17.915Z,16.66
2018-06-08T03:09:17.178Z,16.62
2018-06-08T03:10:17.456Z,16.64
2018-06-08T03:11:17.507Z,16.64
2018-06-08T03:12:17.758Z,16.64
2018-06-08T03:13:18.011Z,16.64
2018-06-08T03:14:17.293Z,16.63
2018-06-08T03:15:17.558Z,16.64
2018-06-08T03:16:17.835Z,16.64
2018-06-08T03:17:17.128Z,16.63
2018-06-08T03:18:17.415Z,16.62
2018-06-08T03:19:17.707Z,16.62
2018-06-08T03:20:17.984Z,16.63
2018-06-08T03:21:17.393Z,16.66
2018-06-08T03:22:17.697Z,16.66
2018-06-08T03:23:18.001Z,16.66
2018-06-08T03:24:17.309Z,16.62
2018-06-08T03:25:17.584Z,16.63
2018-06-08T03:26:17.885Z,16.63
2018-06-08T03:27:17.178Z,16.62
2018-06-08T03:28:17.451Z,16.56
2018-06-08T03:29:17.741Z,16.59
2018-06-08T03:30:18.042Z,16.56
2018-06-08T03:31:17.100Z,16.56
2018-06-08T03:32:17.364Z,16.53
2018-06-08T03:33:17.626Z,16.52
2018-06-08T03:34:17.889Z,16.52
2018-06-08T03:35:17.158Z,16.53
2018-06-08T03:36:17.423Z,16.56
2018-06-08T03:37:17.691Z,16.57
2018-06-08T03:38:17.952Z,16.56
2018-06-08T03:39:17.703Z,16.53
2018-06-08T03:40:17.994Z,16.55
2018-06-08T03:41:17.045Z,16.56
2018-06-08T03:42:17.339Z,16.55
2018-06-08T03:43:17.616Z,16.56
2018-06-08T03:44:17.926Z,16.59
2018-06-08T03:45:17.182Z,16.59
2018-06-08T03:46:17.476Z,16.56
2018-06-08T03:47:17.767Z,16.56
2018-06-08T03:48:18.049Z,16.57
2018-06-08T03:49:17.328Z,16.57
2018-06-08T03:50:17.618Z,16.57
2018-06-08T03:51:17.672Z,16.57
2018-06-08T03:52:17.953Z,16.59
2018-06-08T03:53:17.219Z,16.59
2018-06-08T03:54:17.509Z,16.59
2018-06-08T03:55:17.777Z,16.63
2018-06-08T03:56:18.037Z,16.62
2018-06-08T03:57:17.286Z,16.63
2018-06-08T03:58:17.602Z,16.66
2018-06-08T03:59:17.905Z,16.68
2018-06-08T04:00:17.246Z,16.66
2018-06-08T04:01:17.310Z,16.67
2018-06-08T04:02:17.590Z,16.66
2018-06-08T04:03:17.868Z,16.67
2018-06-08T04:04:17.149Z,16.70
2018-06-08T04:05:17.699Z,16.68
2018-06-08T04:06:17.995Z,16.71
2018-06-08T04:07:17.291Z,16.74
2018-06-08T04:08:17.570Z,16.76
2018-06-08T04:09:17.853Z,16.73
2018-06-08T04:10:17.134Z,16.76
2018-06-08T04:11:17.221Z,16.77
2018-06-08T04:12:17.513Z,16.76
2018-06-08T04:13:17.793Z,16.77
2018-06-08T04:14:17.074Z,16.81
2018-06-08T04:15:17.340Z,16.83
2018-06-08T04:16:17.601Z,16.83
2018-06-08T04:17:17.886Z,16.87
2018-06-08T04:18:17.141Z,16.90
2018-06-08T04:19:17.426Z,16.90
2018-06-08T04:20:17.717Z,16.93
2018-06-08T04:21:18.045Z,16.95
2018-06-08T04:22:17.313Z,17.01
2018-06-08T04:23:17.613Z,17.04
2018-06-08T04:24:17.369Z,17.05
2018-06-08T04:25:17.675Z,17.10
2018-06-08T04:26:17.983Z,17.13
2018-06-08T04:27:17.263Z,17.17
2018-06-08T04:28:17.526Z,17.21
2018-06-08T04:29:17.811Z,17.26
2018-06-08T04:30:17.095Z,17.32
2018-06-08T04:31:17.329Z,17.32
2018-06-08T04:32:17.604Z,17.38
2018-06-08T04:33:17.878Z,17.41
2018-06-08T04:34:17.155Z,17.42
2018-06-08T04:35:17.439Z,17.48
2018-06-08T04:36:17.715Z,17.49
2018-06-08T04:37:17.996Z,17.56
2018-06-08T04:38:17.279Z,17.53
2018-06-08T04:39:17.590Z,17.56
2018-06-08T04:40:17.870Z,17.62
2018-06-08T04:41:17.936Z,17.66
2018-06-08T04:42:17.505Z,17.68
2018-06-08T04:43:17.785Z,17.74
2018-06-08T04:44:17.065Z,17.79
2018-06-08T04:45:17.373Z,17.77
2018-06-08T04:46:17.675Z,17.86
2018-06-08T04:47:17.954Z,17.86
2018-06-08T04:48:17.234Z,17.97
2018-06-08T04:49:17.542Z,17.94
2018-06-08T04:50:17.828Z,18.03
2018-06-08T04:51:17.878Z,18.04
2018-06-08T04:52:17.140Z,18.14
2018-06-08T04:53:17.430Z,18.19
2018-06-08T04:54:17.718Z,18.18
2018-06-08T04:55:18.018Z,18.19
2018-06-08T04:56:17.312Z,18.24
2018-06-08T04:57:17.592Z,18.19
2018-06-08T04:58:17.896Z,18.25
2018-06-08T04:59:17.180Z,18.29
2018-06-08T05:00:17.480Z,18.35
2018-06-08T05:01:17.611Z,18.42
2018-06-08T05:02:17.918Z,18.49
2018-06-08T05:03:17.186Z,18.49
2018-06-08T05:04:17.470Z,18.38
2018-06-08T05:05:17.748Z,18.41
2018-06-08T05:06:18.027Z,18.35
2018-06-08T05:07:17.310Z,18.38
2018-06-08T05:08:17.887Z,18.52
2018-06-08T05:09:17.187Z,18.54
2018-06-08T05:10:17.470Z,18.63
2018-06-08T05:11:17.570Z,18.62
2018-06-08T05:12:17.854Z,18.69
2018-06-08T05:13:17.151Z,18.70
2018-06-08T05:14:17.432Z,18.75
2018-06-08T05:15:17.694Z,18.72
2018-06-08T05:16:17.983Z,18.60
2018-06-08T05:17:17.258Z,18.70
2018-06-08T05:18:17.521Z,18.69
2018-06-08T05:19:17.803Z,18.58
2018-06-08T05:20:17.071Z,18.51
2018-06-08T05:21:17.129Z,18.52
2018-06-08T05:22:17.411Z,18.54
2018-06-08T05:23:17.709Z,18.48
2018-06-08T05:24:17.983Z,18.56
2018-06-08T05:25:17.257Z,18.67
2018-06-08T05:26:17.582Z,18.72
2018-06-08T05:27:17.948Z,18.79
2018-06-08T05:28:17.226Z,18.90
2018-06-08T05:29:17.504Z,18.88
2018-06-08T05:30:17.797Z,18.91
2018-06-08T05:31:17.847Z,18.95
2018-06-08T05:32:17.125Z,19.03
2018-06-08T05:33:17.424Z,19.04
2018-06-08T05:34:17.687Z,19.01
2018-06-08T05:35:17.979Z,19.03
2018-06-08T05:36:17.273Z,19.10
2018-06-08T05:37:17.577Z,19.07
2018-06-08T05:38:17.929Z,19.10
2018-06-08T05:39:17.206Z,19.07
2018-06-08T05:40:17.507Z,19.13
2018-06-08T05:41:17.586Z,19.15
2018-06-08T05:42:17.862Z,19.05
2018-06-08T05:43:17.164Z,18.93
2018-06-08T05:44:17.462Z,19.01
2018-06-08T05:45:17.724Z,19.03
2018-06-08T05:46:18.003Z,19.07
2018-06-08T05:47:17.273Z,19.04
2018-06-08T05:48:17.562Z,19.01
2018-06-08T05:49:17.132Z,19.20
2018-06-08T05:50:17.447Z,19.14
2018-06-08T05:51:17.527Z,19.30
2018-06-08T05:52:17.792Z,19.37
2018-06-08T05:53:17.068Z,19.49
2018-06-08T05:54:17.352Z,19.49
2018-06-08T05:55:17.644Z,19.77
2018-06-08T05:56:17.923Z,19.90
2018-06-08T05:57:17.223Z,19.86
2018-06-08T05:58:17.508Z,19.77
2018-06-08T05:59:17.790Z,19.90
2018-06-08T06:00:17.091Z,19.93
2018-06-08T06:01:17.178Z,19.93
2018-06-08T06:02:17.477Z,19.58
2018-06-08T06:03:17.746Z,19.89
2018-06-08T06:04:18.025Z,19.86
2018-06-08T06:05:17.327Z,19.81
2018-06-08T06:06:17.608Z,19.77
2018-06-08T06:07:17.885Z,19.63
2018-06-08T06:08:17.153Z,19.69
2018-06-08T06:09:17.460Z,19.87
2018-06-08T06:10:17.750Z,19.97
2018-06-08T06:11:17.800Z,20.03
2018-06-08T06:12:17.072Z,19.99
2018-06-08T06:13:17.334Z,20.01
2018-06-08T06:14:17.598Z,20.08
2018-06-08T06:15:17.868Z,20.11
2018-06-08T06:16:17.155Z,20.25
2018-06-08T06:17:17.447Z,20.18
2018-06-08T06:18:17.749Z,20.06
2018-06-08T06:19:18.025Z,20.18
2018-06-08T06:20:17.300Z,20.20
2018-06-08T06:21:17.514Z,20.34
2018-06-08T06:22:17.772Z,20.42
2018-06-08T06:23:17.057Z,20.37
2018-06-08T06:24:17.346Z,20.35
2018-06-08T06:25:17.626Z,20.28
2018-06-08T06:26:17.888Z,20.28
2018-06-08T06:27:17.184Z,20.37
2018-06-08T06:28:17.466Z,20.42
2018-06-08T06:29:17.744Z,20.35
2018-06-08T06:30:18.029Z,20.28
2018-06-08T06:31:17.084Z,20.24
2018-06-08T06:32:17.398Z,20.37
2018-06-08T06:33:17.724Z,20.34
2018-06-08T06:34:18.002Z,20.37
2018-06-08T06:35:17.288Z,20.32
2018-06-08T06:36:17.549Z,20.44
2018-06-08T06:37:17.826Z,20.58
2018-06-08T06:38:17.122Z,20.66
2018-06-08T06:39:17.427Z,20.54
2018-06-08T06:40:17.713Z,20.42
2018-06-08T06:41:17.776Z,20.52
2018-06-08T06:42:17.051Z,20.60
2018-06-08T06:43:17.314Z,20.62
2018-06-08T06:44:17.594Z,20.75
2018-06-08T06:45:17.880Z,20.59
2018-06-08T06:46:17.203Z,20.45
2018-06-08T06:47:17.470Z,20.58
2018-06-08T06:48:17.751Z,20.62
2018-06-08T06:49:18.048Z,20.63
2018-06-08T06:50:17.328Z,20.65
2018-06-08T06:51:17.377Z,20.63
2018-06-08T06:52:17.648Z,20.60
2018-06-08T06:53:17.930Z,20.63
2018-06-08T06:54:17.235Z,20.65
2018-06-08T06:55:17.514Z,20.78
2018-06-08T06:56:17.808Z,20.76
2018-06-08T06:57:17.108Z,20.76
2018-06-08T06:58:17.395Z,20.60
2018-06-08T06:59:17.669Z,20.69
2018-06-08T07:00:17.948Z,20.80
2018-06-08T07:01:18.006Z,20.92
2018-06-08T07:02:17.312Z,20.94
2018-06-08T07:03:17.587Z,21.07
2018-06-08T07:04:17.896Z,21.07
2018-06-08T07:05:17.158Z,21.27
2018-06-08T07:06:17.438Z,21.38
2018-06-08T07:07:17.717Z,21.37
2018-06-08T07:08:18.011Z,21.34
2018-06-08T07:09:17.279Z,21.34
2018-06-08T07:10:17.569Z,21.24
2018-06-08T07:11:17.649Z,21.30
2018-06-08T07:12:17.941Z,21.29
2018-06-08T07:13:17.226Z,21.34
2018-06-08T07:14:17.780Z,21.38
2018-06-08T07:15:17.079Z,21.45
2018-06-08T07:16:17.381Z,21.59
2018-06-08T07:17:17.677Z,21.65
2018-06-08T07:18:17.931Z,21.55
2018-06-08T07:19:17.218Z,21.42
2018-06-08T07:20:17.488Z,21.47
2018-06-08T07:21:17.573Z,21.54
2018-06-08T07:22:17.841Z,21.70
2018-06-08T07:23:17.125Z,21.65
2018-06-08T07:24:17.425Z,21.66
2018-06-08T07:25:17.714Z,21.51
2018-06-08T07:26:17.978Z,21.42
2018-06-08T07:27:17.256Z,21.30
2018-06-08T07:28:17.567Z,21.47
2018-06-08T07:29:17.878Z,21.62
2018-06-08T07:30:17.168Z,21.72
2018-06-08T07:31:17.260Z,21.66
2018-06-08T07:32:17.543Z,21.65
2018-06-08T07:33:18.091Z,21.65
2018-06-08T07:34:17.381Z,21.62
2018-06-08T07:35:17.664Z,21.61
2018-06-08T07:36:17.938Z,21.66
2018-06-08T07:37:17.215Z,21.52
2018-06-08T07:38:17.496Z,21.59
2018-06-08T07:39:17.768Z,21.75
2018-06-08T07:40:17.163Z,21.75
2018-06-08T07:41:17.234Z,21.73
2018-06-08T07:42:17.616Z,21.73
2018-06-08T07:43:17.896Z,21.80
2018-06-08T07:44:17.184Z,21.78
2018-06-08T07:45:17.471Z,21.82
2018-06-08T07:46:17.750Z,21.88
2018-06-08T07:47:18.042Z,21.80
2018-06-08T07:48:17.314Z,21.88
2018-06-08T07:49:17.597Z,21.97
2018-06-08T07:50:17.901Z,22.00
2018-06-08T07:51:17.943Z,22.03
2018-06-08T07:52:17.210Z,21.95
2018-06-08T07:53:17.493Z,22.00
2018-06-08T07:54:17.789Z,22.07
2018-06-08T07:55:17.075Z,22.31
2018-06-08T07:56:17.383Z,22.27
2018-06-08T07:57:17.671Z,22.12
2018-06-08T07:58:17.950Z,22.13
2018-06-08T07:59:17.216Z,22.23
2018-06-08T08:00:17.499Z,22.35
2018-06-08T08:01:17.587Z,22.62
2018-06-08T08:02:17.871Z,22.72
2018-06-08T08:03:17.152Z,22.83
2018-06-08T08:04:17.452Z,22.82
2018-06-08T08:05:17.754Z,22.67
2018-06-08T08:06:18.018Z,22.31
2018-06-08T08:07:17.300Z,22.41
2018-06-08T08:08:17.581Z,22.55
2018-06-08T08:09:17.916Z,22.74
2018-06-08T08:10:17.208Z,22.88
2018-06-08T08:11:17.323Z,23.02
2018-06-08T08:12:17.600Z,22.96
2018-06-08T08:13:17.909Z,23.12
2018-06-08T08:14:17.179Z,23.25
2018-06-08T08:15:17.474Z,23.30
2018-06-08T08:16:17.741Z,23.41
2018-06-08T08:17:18.029Z,23.15
2018-06-08T08:18:17.313Z,23.15
2018-06-08T08:19:17.613Z,23.64
2018-06-08T08:20:17.981Z,23.74
2018-06-08T08:21:18.041Z,24.12
2018-06-08T08:22:17.337Z,24.22
2018-06-08T08:23:17.614Z,24.23
2018-06-08T08:24:17.902Z,24.50
2018-06-08T08:25:17.162Z,24.57
2018-06-08T08:26:17.454Z,24.54
2018-06-08T08:27:17.737Z,24.54
2018-06-08T08:28:18.002Z,24.75
2018-06-08T08:29:17.288Z,24.80
2018-06-08T08:30:17.599Z,24.75
2018-06-08T08:31:17.637Z,25.05
2018-06-08T08:32:17.908Z,24.82
2018-06-08T08:33:17.204Z,24.74
2018-06-08T08:34:17.543Z,25.01
2018-06-08T08:35:18.058Z,25.12
2018-06-08T08:36:17.367Z,25.14
2018-06-08T08:37:17.625Z,25.14
2018-06-08T08:38:17.908Z,24.77
2018-06-08T08:39:17.207Z,24.40
2018-06-08T08:40:17.480Z,24.44
2018-06-08T08:41:17.551Z,24.63
2018-06-08T08:42:17.841Z,24.74
2018-06-08T08:43:17.135Z,24.71
2018-06-08T08:44:17.424Z,24.98
2018-06-08T08:45:17.691Z,25.23
2018-06-08T08:46:17.966Z,25.23
2018-06-08T08:47:17.236Z,25.43
2018-06-08T08:48:17.515Z,25.35
2018-06-08T08:49:17.812Z,25.67
2018-06-08T08:50:17.097Z,25.47
2018-06-08T08:51:17.212Z,24.46
2018-06-08T08:52:17.519Z,24.59
2018-06-08T08:53:17.792Z,25.14
2018-06-08T08:54:17.071Z,25.49
2018-06-08T08:55:17.356Z,25.28
2018-06-08T08:56:17.638Z,25.60
2018-06-08T08:57:17.913Z,25.77
2018-06-08T08:58:17.213Z,26.08
2018-06-08T08:59:17.506Z,26.12
2018-06-08T09:00:17.794Z,26.15
2018-06-08T09:01:17.845Z,26.40
2018-06-08T09:02:17.109Z,25.21
2018-06-08T09:03:17.380Z,25.07
2018-06-08T09:04:17.661Z,26.07
2018-06-08T09:05:17.952Z,26.32
2018-06-08T09:06:17.215Z,26.25
2018-06-08T09:07:17.489Z,26.31
2018-06-08T09:08:17.799Z,26.42
2018-06-08T09:09:17.068Z,25.97
2018-06-08T09:10:17.373Z,25.76
2018-06-08T09:11:17.419Z,26.07
2018-06-08T09:12:17.697Z,26.40
2018-06-08T09:13:17.989Z,25.69
2018-06-08T09:14:17.278Z,25.59
2018-06-08T09:15:17.553Z,26.31
2018-06-08T09:16:17.811Z,26.63
2018-06-08T09:17:17.069Z,26.53
2018-06-08T09:18:17.361Z,26.35
2018-06-08T09:19:17.638Z,26.13
2018-06-08T09:20:17.920Z,25.83
2018-06-08T09:21:17.972Z,26.00
2018-06-08T09:22:17.246Z,25.66
2018-06-08T09:23:17.516Z,26.24
2018-06-08T09:24:17.805Z,26.48
2018-06-08T09:25:17.061Z,26.70
2018-06-08T09:26:17.352Z,26.76
2018-06-08T09:27:17.693Z,26.76
2018-06-08T09:28:17.045Z,26.32
2018-06-08T09:29:17.314Z,26.40
2018-06-08T09:30:17.584Z,26.55
2018-06-08T09:31:17.627Z,26.63
2018-06-08T09:32:17.909Z,26.55
2018-06-08T09:33:17.190Z,26.34
2018-06-08T09:34:17.456Z,26.34
2018-06-08T09:35:17.756Z,26.34
2018-06-08T09:36:18.035Z,26.40
2018-06-08T09:37:17.299Z,26.49
2018-06-08T09:38:17.599Z,26.36
2018-06-08T09:39:17.879Z,26.08
2018-06-08T09:40:17.181Z,26.09
2018-06-08T09:41:17.205Z,26.25
2018-06-08T09:42:17.484Z,26.24
2018-06-08T09:43:17.769Z,26.35
2018-06-08T09:44:18.063Z,26.48
2018-06-08T09:45:17.352Z,26.28
2018-06-08T09:46:17.612Z,26.36
2018-06-08T09:47:17.911Z,26.42
2018-06-08T09:48:17.194Z,26.42
2018-06-08T09:49:17.475Z,26.22
2018-06-08T09:50:17.754Z,26.28
2018-06-08T09:51:17.806Z,26.43
2018-06-08T09:52:17.085Z,26.35
2018-06-08T09:53:17.362Z,26.42
2018-06-08T09:54:17.658Z,26.56
2018-06-08T09:55:17.925Z,26.39
2018-06-08T09:56:17.216Z,26.27
2018-06-08T09:57:17.496Z,26.27
2018-06-08T09:58:17.780Z,26.52
2018-06-08T09:59:18.056Z,26.58
2018-06-08T10:00:17.343Z,26.83
2018-06-08T10:01:17.421Z,27.01
2018-06-08T10:02:17.701Z,27.26
2018-06-08T10:03:17.965Z,27.28
2018-06-08T10:04:17.241Z,27.59
2018-06-08T10:05:17.585Z,27.49
2018-06-08T10:06:17.888Z,26.96
2018-06-08T10:07:17.170Z,27.76
2018-06-08T10:08:17.469Z,26.97
2018-06-08T10:09:17.750Z,27.01
2018-06-08T10:10:18.019Z,27.05
2018-06-08T10:11:17.126Z,27.17
2018-06-08T10:12:17.466Z,27.26
2018-06-08T10:13:17.760Z,27.56
2018-06-08T10:14:18.038Z,27.51
2018-06-08T10:15:17.314Z,27.35
2018-06-08T10:16:17.605Z,27.40
2018-06-08T10:17:17.865Z,27.25
2018-06-08T10:18:17.156Z,26.93
2018-06-08T10:19:17.436Z,27.28
2018-06-08T10:20:17.718Z,27.24
2018-06-08T10:21:17.789Z,27.20
2018-06-08T10:22:17.065Z,26.49
2018-06-08T10:23:17.358Z,26.73
2018-06-08T10:24:17.644Z,26.73
2018-06-08T10:25:17.939Z,27.07
2018-06-08T10:26:17.212Z,27.04
2018-06-08T10:27:17.496Z,27.24
2018-06-08T10:28:18.088Z,26.89
2018-06-08T10:29:17.397Z,26.74
2018-06-08T10:30:17.684Z,27.08
2018-06-08T10:31:17.755Z,26.59
2018-06-08T10:32:18.045Z,26.45
2018-06-08T10:33:17.314Z,26.60
2018-06-08T10:34:17.592Z,26.82
2018-06-08T10:35:17.912Z,27.03
2018-06-08T10:36:17.189Z,26.93
2018-06-08T10:37:17.469Z,27.21
2018-06-08T10:38:17.750Z,27.18
2018-06-08T10:39:18.056Z,27.17
2018-06-08T10:40:17.339Z,27.75
2018-06-08T10:41:17.419Z,27.77
2018-06-08T10:42:17.697Z,27.76
2018-06-08T10:43:17.966Z,27.49
2018-06-08T10:44:17.275Z,27.63
2018-06-08T10:45:17.548Z,27.35
2018-06-08T10:46:17.839Z,26.94
2018-06-08T10:47:17.125Z,27.55
2018-06-08T10:48:17.402Z,27.86
2018-06-08T10:49:17.678Z,27.87
2018-06-08T10:50:17.936Z,27.69
2018-06-08T10:51:17.985Z,27.52
2018-06-08T10:52:17.281Z,27.52
2018-06-08T10:53:17.565Z,27.53
2018-06-08T10:54:17.854Z,27.61
2018-06-08T10:55:17.124Z,27.41
2018-06-08T10:56:17.390Z,27.65
2018-06-08T10:57:17.650Z,27.72
2018-06-08T10:58:17.911Z,27.76
2018-06-08T10:59:17.188Z,27.61
2018-06-08T11:00:17.512Z,27.72
2018-06-08T11:01:17.595Z,27.66
2018-06-08T11:02:17.857Z,27.83
2018-06-08T11:03:17.175Z,28.11
2018-06-08T11:04:17.444Z,28.34
2018-06-08T11:05:17.747Z,28.06
2018-06-08T11:06:18.012Z,28.03
2018-06-08T11:07:17.294Z,27.68
2018-06-08T11:08:17.591Z,27.68
2018-06-08T11:09:17.854Z,27.83
2018-06-08T11:10:17.144Z,28.34
2018-06-08T11:11:17.202Z,28.10
2018-06-08T11:12:17.483Z,28.04
2018-06-08T11:13:17.775Z,28.41
2018-06-08T11:14:18.055Z,28.35
2018-06-08T11:15:17.329Z,28.34
2018-06-08T11:16:17.626Z,28.56
2018-06-08T11:17:17.902Z,28.37
2018-06-08T11:18:17.201Z,28.28
2018-06-08T11:19:17.465Z,28.69
2018-06-08T11:20:17.745Z,28.37
2018-06-08T11:21:17.818Z,28.44
2018-06-08T11:22:17.092Z,28.58
2018-06-08T11:23:17.372Z,28.78
2018-06-08T11:24:17.651Z,28.78
2018-06-08T11:25:17.925Z,27.89
2018-06-08T11:26:17.192Z,27.62
2018-06-08T11:27:17.448Z,28.10
2018-06-08T11:28:17.722Z,27.69
2018-06-08T11:29:18.016Z,27.89
2018-06-08T11:30:17.328Z,28.31
2018-06-08T11:31:17.374Z,28.39
2018-06-08T11:32:17.682Z,28.32
2018-06-08T11:33:17.971Z,28.03
2018-06-08T11:34:17.271Z,28.01
2018-06-08T11:35:17.556Z,28.99
2018-06-08T11:36:17.820Z,28.56
2018-06-08T11:37:17.081Z,27.90
2018-06-08T11:38:17.362Z,28.21
2018-06-08T11:39:17.636Z,28.32
2018-06-08T11:40:17.155Z,28.24
2018-06-08T11:41:17.202Z,28.35
2018-06-08T11:42:17.506Z,28.52
2018-06-08T11:43:17.791Z,28.58
2018-06-08T11:44:17.054Z,28.66
2018-06-08T11:45:17.334Z,28.83
2018-06-08T11:46:17.609Z,29.30
2018-06-08T11:47:17.892Z,29.45
2018-06-08T11:48:17.210Z,29.85
2018-06-08T11:49:17.491Z,29.78
2018-06-08T11:50:17.764Z,29.62
2018-06-08T11:51:17.841Z,29.11
2018-06-08T11:52:17.127Z,29.07
2018-06-08T11:53:17.468Z,29.14
2018-06-08T11:54:17.918Z,29.07
2018-06-08T11:55:17.209Z,29.02
2018-06-08T11:56:17.481Z,28.93
2018-06-08T11:57:17.767Z,29.06
2018-06-08T11:58:17.059Z,29.27
2018-06-08T11:59:17.358Z,29.21
2018-06-08T12:00:17.678Z,29.20
2018-06-08T12:01:17.712Z,29.20
2018-06-08T12:02:17.978Z,29.04
2018-06-08T12:03:17.258Z,29.30
2018-06-08T12:04:17.561Z,29.20
2018-06-08T12:05:17.860Z,29.22
2018-06-08T12:06:17.136Z,28.82
2018-06-08T12:07:17.404Z,28.47
2018-06-08T12:08:17.697Z,28.56
2018-06-08T12:09:17.970Z,28.66
2018-06-08T12:10:17.269Z,28.45
2018-06-08T12:11:17.351Z,28.28
2018-06-08T12:12:17.621Z,28.63
2018-06-08T12:13:17.894Z,28.62
2018-06-08T12:14:17.186Z,28.56
2018-06-08T12:15:17.465Z,28.31
2018-06-08T12:16:17.757Z,28.31
2018-06-08T12:17:18.039Z,28.47
2018-06-08T12:18:17.304Z,28.48
2018-06-08T12:19:17.567Z,28.47
2018-06-08T12:20:17.855Z,28.44
2018-06-08T12:21:17.912Z,28.25
2018-06-08T12:22:17.205Z,28.23
2018-06-08T12:23:17.498Z,27.96
2018-06-08T12:24:17.771Z,27.84
2018-06-08T12:25:18.037Z,27.96
2018-06-08T12:26:17.318Z,28.18
2018-06-08T12:27:17.578Z,28.09
2018-06-08T12:28:17.857Z,28.17
2018-06-08T12:29:17.176Z,28.41
2018-06-08T12:30:17.484Z,28.58
2018-06-08T12:31:17.541Z,28.41
2018-06-08T12:32:17.820Z,27.88
2018-06-08T12:33:17.099Z,27.84
2018-06-08T12:34:17.383Z,28.03
2018-06-08T12:35:17.646Z,28.07
2018-06-08T12:36:18.250Z,28.00
2018-06-08T12:37:17.549Z,28.11
2018-06-08T12:38:18.107Z,28.21
2018-06-08T12:39:17.383Z,28.33
2018-06-08T12:40:17.685Z,28.52
2018-06-08T12:41:17.759Z,28.51
2018-06-08T12:42:18.040Z,28.66
2018-06-08T12:43:17.310Z,28.82
2018-06-08T12:44:17.604Z,28.87
2018-06-08T12:45:18.010Z,28.76
2018-06-08T12:46:17.298Z,28.77
2018-06-08T12:47:17.592Z,28.45
2018-06-08T12:48:17.866Z,28.52
2018-06-08T12:49:17.153Z,28.75
2018-06-08T12:50:17.450Z,28.36
2018-06-08T12:51:17.490Z,28.37
2018-06-08T12:52:17.847Z,28.45